sensor_id;sensor_type;location;lat;lon;timestamp;pressure;altitude;pressure_sealevel;temperature;humidity
60974;BME280;46846;51.528;5.076;2022-11-15T00:01:34;100290.72;;;5.27;75.26
60974;BME280;46846;51.528;5.076;2022-11-15T00:04:02;100291.56;;;5.29;75.65
60974;BME280;46846;51.528;5.076;2022-11-15T00:06:28;100285.38;;;5.30;75.31
60974;BME280;46846;51.528;5.076;2022-11-15T00:08:53;100289.78;;;5.31;75.38
60974;BME280;46846;51.528;5.076;2022-11-15T00:11:19;100290.66;;;5.30;75.04
60974;BME280;46846;51.528;5.076;2022-11-15T00:13:44;100280.09;;;5.30;75.54
60974;BME280;46846;51.528;5.076;2022-11-15T00:16:09;100280.03;;;5.33;75.38
60974;BME280;46846;51.528;5.076;2022-11-15T00:18:36;100281.78;;;5.34;75.91
60974;BME280;46846;51.528;5.076;2022-11-15T00:21:04;100277.31;;;5.37;75.86
60974;BME280;46846;51.528;5.076;2022-11-15T00:23:32;100280.84;;;5.37;76.31
60974;BME280;46846;51.528;5.076;2022-11-15T00:25:58;100280.75;;;5.40;76.73
60974;BME280;46846;51.528;5.076;2022-11-15T00:28:24;100276.38;;;5.41;76.12
60974;BME280;46846;51.528;5.076;2022-11-15T00:30:49;100271.00;;;5.44;76.66
60974;BME280;46846;51.528;5.076;2022-11-15T00:33:15;100271.00;;;5.44;76.70
60974;BME280;46846;51.528;5.076;2022-11-15T00:35:40;100270.16;;;5.43;76.74
60974;BME280;46846;51.528;5.076;2022-11-15T00:38:06;100275.34;;;5.46;77.63
60974;BME280;46846;51.528;5.076;2022-11-15T00:40:31;100271.81;;;5.47;77.07
60974;BME280;46846;51.528;5.076;2022-11-15T00:42:57;100270.97;;;5.47;77.53
60974;BME280;46846;51.528;5.076;2022-11-15T00:45:23;100275.34;;;5.48;78.28
60974;BME280;46846;51.528;5.076;2022-11-15T00:47:49;100266.63;;;5.43;77.40
60974;BME280;46846;51.528;5.076;2022-11-15T00:50:14;100265.69;;;5.47;78.00
60974;BME280;46846;51.528;5.076;2022-11-15T00:52:40;100265.69;;;5.47;78.08
60974;BME280;46846;51.528;5.076;2022-11-15T00:55:05;100256.88;;;5.48;79.09
60974;BME280;46846;51.528;5.076;2022-11-15T00:57:31;100260.31;;;5.50;79.09
60974;BME280;46846;51.528;5.076;2022-11-15T00:59:56;100254.16;;;5.50;79.24
60974;BME280;46846;51.528;5.076;2022-11-15T01:02:21;100249.75;;;5.50;78.99
60974;BME280;46846;51.528;5.076;2022-11-15T01:04:47;100252.50;;;5.47;78.81
60974;BME280;46846;51.528;5.076;2022-11-15T01:07:12;100256.78;;;5.51;79.71
60974;BME280;46846;51.528;5.076;2022-11-15T01:09:38;100256.88;;;5.48;78.65
60974;BME280;46846;51.528;5.076;2022-11-15T01:12:03;100259.31;;;5.56;80.62
60974;BME280;46846;51.528;5.076;2022-11-15T01:14:29;100258.47;;;5.55;80.53
60974;BME280;46846;51.528;5.076;2022-11-15T01:16:54;100256.63;;;5.57;81.04
60974;BME280;46846;51.528;5.076;2022-11-15T01:19:20;100254.91;;;5.56;80.14
60974;BME280;46846;51.528;5.076;2022-11-15T01:21:45;100254.03;;;5.56;80.79
60974;BME280;46846;51.528;5.076;2022-11-15T01:24:12;100252.19;;;5.59;81.23
60974;BME280;46846;51.528;5.076;2022-11-15T01:26:37;100253.13;;;5.57;80.97
60974;BME280;46846;51.528;5.076;2022-11-15T01:29:03;100249.59;;;5.58;80.31
60974;BME280;46846;51.528;5.076;2022-11-15T01:31:29;100256.75;;;5.53;79.41
60974;BME280;46846;51.528;5.076;2022-11-15T01:33:54;100250.47;;;5.58;81.74
60974;BME280;46846;51.528;5.076;2022-11-15T01:36:21;100251.50;;;5.51;79.47
60974;BME280;46846;51.528;5.076;2022-11-15T01:38:55;100247.09;;;5.52;80.82
60974;BME280;46846;51.528;5.076;2022-11-15T01:41:24;100249.84;;;5.47;79.22
60974;BME280;46846;51.528;5.076;2022-11-15T01:43:56;100243.72;;;5.45;80.21
60974;BME280;46846;51.528;5.076;2022-11-15T01:46:29;100234.03;;;5.47;79.01
60974;BME280;46846;51.528;5.076;2022-11-15T01:49:00;100235.56;;;5.56;81.16
60974;BME280;46846;51.528;5.076;2022-11-15T01:51:30;100223.16;;;5.59;81.16
60974;BME280;46846;51.528;5.076;2022-11-15T01:54:01;100233.72;;;5.59;79.97
60974;BME280;46846;51.528;5.076;2022-11-15T01:56:30;100221.38;;;5.61;80.27
60974;BME280;46846;51.528;5.076;2022-11-15T01:58:57;100220.28;;;5.69;82.52
60974;BME280;46846;51.528;5.076;2022-11-15T02:01:24;100219.31;;;5.73;83.38
60974;BME280;46846;51.528;5.076;2022-11-15T02:03:54;100214.28;;;5.64;79.91
60974;BME280;46846;51.528;5.076;2022-11-15T02:06:22;100207.97;;;5.69;81.53
60974;BME280;46846;51.528;5.076;2022-11-15T02:08:47;100209.66;;;5.72;82.84
60974;BME280;46846;51.528;5.076;2022-11-15T02:11:14;100209.00;;;5.64;80.72
60974;BME280;46846;51.528;5.076;2022-11-15T02:13:39;100206.16;;;5.71;82.22
60974;BME280;46846;51.528;5.076;2022-11-15T02:19:17;100205.16;;;5.77;82.35
60974;BME280;46846;51.528;5.076;2022-11-15T02:33:31;100192.56;;;5.87;81.99
60974;BME280;46846;51.528;5.076;2022-11-15T02:36:02;100189.13;;;5.83;82.86
60974;BME280;46846;51.528;5.076;2022-11-15T02:40:59;100185.44;;;5.91;84.95
60974;BME280;46846;51.528;5.076;2022-11-15T02:43:49;100181.94;;;5.90;83.03
60974;BME280;46846;51.528;5.076;2022-11-15T02:49:29;100177.63;;;5.86;83.04
60974;BME280;46846;51.528;5.076;2022-11-15T02:51:56;100177.75;;;5.81;81.97
60974;BME280;46846;51.528;5.076;2022-11-15T02:54:26;100176.13;;;5.77;81.43
60974;BME280;46846;51.528;5.076;2022-11-15T02:56:56;100169.78;;;5.84;83.40
60974;BME280;46846;51.528;5.076;2022-11-15T02:59:43;100173.06;;;5.93;84.15
60974;BME280;46846;51.528;5.076;2022-11-15T03:05:19;100169.41;;;5.98;84.50
60974;BME280;46846;51.528;5.076;2022-11-15T03:07:59;100167.84;;;5.89;82.42
60974;BME280;46846;51.528;5.076;2022-11-15T03:13:47;100167.72;;;5.94;84.12
60974;BME280;46846;51.528;5.076;2022-11-15T03:16:47;100172.13;;;5.95;83.15
60974;BME280;46846;51.528;5.076;2022-11-15T03:22:03;100169.97;;;6.11;85.43
60974;BME280;46846;51.528;5.076;2022-11-15T03:24:34;100167.19;;;6.16;86.11
60974;BME280;46846;51.528;5.076;2022-11-15T03:27:02;100167.16;;;6.18;86.42
60974;BME280;46846;51.528;5.076;2022-11-15T03:29:37;100172.34;;;6.21;86.91
60974;BME280;46846;51.528;5.076;2022-11-15T03:32:18;100169.69;;;6.22;86.74
60974;BME280;46846;51.528;5.076;2022-11-15T03:35:17;100166.91;;;6.27;87.06
60974;BME280;46846;51.528;5.076;2022-11-15T03:40:11;100158.03;;;6.29;87.86
60974;BME280;46846;51.528;5.076;2022-11-15T03:42:48;100161.56;;;6.30;87.58
60974;BME280;46846;51.528;5.076;2022-11-15T03:45:18;100159.63;;;6.35;88.21
60974;BME280;46846;51.528;5.076;2022-11-15T03:47:49;100157.88;;;6.36;87.79
60974;BME280;46846;51.528;5.076;2022-11-15T03:50:20;100160.41;;;6.39;88.14
60974;BME280;46846;51.528;5.076;2022-11-15T03:52:49;100156.91;;;6.38;88.36
60974;BME280;46846;51.528;5.076;2022-11-15T03:55:19;100162.25;;;6.37;87.83
60974;BME280;46846;51.528;5.076;2022-11-15T03:57:46;100162.22;;;6.38;87.76
60974;BME280;46846;51.528;5.076;2022-11-15T04:00:12;100163.91;;;6.41;88.36
60974;BME280;46846;51.528;5.076;2022-11-15T04:02:38;100164.78;;;6.40;88.43
60974;BME280;46846;51.528;5.076;2022-11-15T04:05:03;100166.47;;;6.42;89.01
60974;BME280;46846;51.528;5.076;2022-11-15T04:07:29;100170.00;;;6.43;88.77
60974;BME280;46846;51.528;5.076;2022-11-15T04:09:54;100172.72;;;6.40;87.51
60974;BME280;46846;51.528;5.076;2022-11-15T04:12:42;100155.00;;;6.43;88.47
60974;BME280;46846;51.528;5.076;2022-11-15T04:15:11;100162.81;;;6.48;88.84
60974;BME280;46846;51.528;5.076;2022-11-15T04:20:05;100160.38;;;6.40;88.27
60974;BME280;46846;51.528;5.076;2022-11-15T04:22:52;100162.91;;;6.43;87.53
60974;BME280;46846;51.528;5.076;2022-11-15T04:25:36;100165.53;;;6.45;89.10
60974;BME280;46846;51.528;5.076;2022-11-15T04:28:02;100166.41;;;6.46;88.58
60974;BME280;46846;51.528;5.076;2022-11-15T04:30:27;100166.31;;;6.49;88.63
60974;BME280;46846;51.528;5.076;2022-11-15T04:32:52;100164.47;;;6.51;89.32
60974;BME280;46846;51.528;5.076;2022-11-15T04:35:18;100168.28;;;6.42;85.43
60974;BME280;46846;51.528;5.076;2022-11-15T04:37:43;100174.34;;;6.46;86.64
60974;BME280;46846;51.528;5.076;2022-11-15T04:40:08;100163.78;;;6.46;87.24
60974;BME280;46846;51.528;5.076;2022-11-15T04:42:34;100176.81;;;6.52;87.81
60974;BME280;46846;51.528;5.076;2022-11-15T04:44:59;100171.53;;;6.52;88.33
60974;BME280;46846;51.528;5.076;2022-11-15T04:47:25;100169.88;;;6.48;87.00
60974;BME280;46846;51.528;5.076;2022-11-15T04:49:50;100168.22;;;6.43;86.38
60974;BME280;46846;51.528;5.076;2022-11-15T04:52:15;100159.28;;;6.48;86.78
60974;BME280;46846;51.528;5.076;2022-11-15T04:54:41;100162.50;;;6.27;82.36
60974;BME280;46846;51.528;5.076;2022-11-15T04:57:07;100157.88;;;6.36;85.64
60974;BME280;46846;51.528;5.076;2022-11-15T04:59:33;100157.69;;;6.42;85.24
60974;BME280;46846;51.528;5.076;2022-11-15T05:01:58;100160.25;;;6.45;85.83
60974;BME280;46846;51.528;5.076;2022-11-15T05:04:24;100162.75;;;6.50;87.12
60974;BME280;46846;51.528;5.076;2022-11-15T05:06:50;100167.41;;;6.41;83.19
60974;BME280;46846;51.528;5.076;2022-11-15T05:09:17;100161.91;;;6.49;85.85
60974;BME280;46846;51.528;5.076;2022-11-15T05:11:43;100160.75;;;6.58;86.93
60974;BME280;46846;51.528;5.076;2022-11-15T05:14:08;100150.00;;;6.64;87.78
60974;BME280;46846;51.528;5.076;2022-11-15T05:16:34;100154.50;;;6.61;87.66
60974;BME280;46846;51.528;5.076;2022-11-15T05:18:59;100158.25;;;6.53;84.64
60974;BME280;46846;51.528;5.076;2022-11-15T05:21:25;100155.66;;;6.52;85.42
60974;BME280;46846;51.528;5.076;2022-11-15T05:23:50;100151.19;;;6.54;85.64
60974;BME280;46846;51.528;5.076;2022-11-15T05:26:17;100155.56;;;6.55;85.40
60974;BME280;46846;51.528;5.076;2022-11-15T05:28:42;100158.84;;;6.63;87.33
60974;BME280;46846;51.528;5.076;2022-11-15T05:31:13;100160.50;;;6.67;87.50
60974;BME280;46846;51.528;5.076;2022-11-15T05:33:40;100157.88;;;6.67;86.82
60974;BME280;46846;51.528;5.076;2022-11-15T05:36:29;100160.41;;;6.70;88.08
60974;BME280;46846;51.528;5.076;2022-11-15T05:38:56;100163.00;;;6.72;86.73
60974;BME280;46846;51.528;5.076;2022-11-15T05:41:37;100161.34;;;6.68;87.00
60974;BME280;46846;51.528;5.076;2022-11-15T05:44:07;100159.47;;;6.73;87.09
60974;BME280;46846;51.528;5.076;2022-11-15T05:46:35;100163.78;;;6.76;87.28
60974;BME280;46846;51.528;5.076;2022-11-15T05:49:03;100167.34;;;6.75;87.32
60974;BME280;46846;51.528;5.076;2022-11-15T05:51:31;100164.91;;;6.67;84.94
60974;BME280;46846;51.528;5.076;2022-11-15T05:53:57;100171.72;;;6.76;87.67
60974;BME280;46846;51.528;5.076;2022-11-15T05:56:24;100170.81;;;6.77;87.08
60974;BME280;46846;51.528;5.076;2022-11-15T05:58:52;100170.97;;;6.70;86.42
60974;BME280;46846;51.528;5.076;2022-11-15T06:01:18;100178.88;;;6.72;85.53
60974;BME280;46846;51.528;5.076;2022-11-15T06:03:43;100178.09;;;6.68;84.29
60974;BME280;46846;51.528;5.076;2022-11-15T06:06:09;100173.50;;;6.75;86.53
60974;BME280;46846;51.528;5.076;2022-11-15T06:08:34;100171.66;;;6.77;86.80
60974;BME280;46846;51.528;5.076;2022-11-15T06:11:06;100166.25;;;6.82;88.06
60974;BME280;46846;51.528;5.076;2022-11-15T06:13:32;100168.91;;;6.82;87.67
60974;BME280;46846;51.528;5.076;2022-11-15T06:15:58;100169.78;;;6.81;87.84
60974;BME280;46846;51.528;5.076;2022-11-15T06:18:23;100170.88;;;6.74;85.42
60974;BME280;46846;51.528;5.076;2022-11-15T06:20:48;100177.09;;;6.73;85.43
60974;BME280;46846;51.528;5.076;2022-11-15T06:23:14;100177.88;;;6.76;85.46
60974;BME280;46846;51.528;5.076;2022-11-15T06:25:39;100178.63;;;6.80;86.43
60974;BME280;46846;51.528;5.076;2022-11-15T06:28:04;100174.66;;;6.66;83.63
60974;BME280;46846;51.528;5.076;2022-11-15T06:30:33;100180.59;;;6.73;85.18
60974;BME280;46846;51.528;5.076;2022-11-15T06:33:03;100179.94;;;6.66;83.23
60974;BME280;46846;51.528;5.076;2022-11-15T06:35:29;100185.94;;;6.72;85.39
60974;BME280;46846;51.528;5.076;2022-11-15T06:37:55;100184.78;;;6.82;86.69
60974;BME280;46846;51.528;5.076;2022-11-15T06:40:21;100182.13;;;6.82;86.58
60974;BME280;46846;51.528;5.076;2022-11-15T06:42:46;100187.34;;;6.83;85.20
60974;BME280;46846;51.528;5.076;2022-11-15T06:45:12;100183.84;;;6.83;85.03
60974;BME280;46846;51.528;5.076;2022-11-15T06:47:45;100196.00;;;6.90;87.10
60974;BME280;46846;51.528;5.076;2022-11-15T06:50:11;100196.91;;;6.89;86.02
60974;BME280;46846;51.528;5.076;2022-11-15T06:52:36;100200.34;;;6.91;86.81
60974;BME280;46846;51.528;5.076;2022-11-15T06:55:02;100194.25;;;6.89;86.48
60974;BME280;46846;51.528;5.076;2022-11-15T06:57:27;100195.88;;;6.93;87.18
60974;BME280;46846;51.528;5.076;2022-11-15T06:59:52;100194.13;;;6.94;87.33
60974;BME280;46846;51.528;5.076;2022-11-15T07:02:18;100197.59;;;6.94;87.57
60974;BME280;46846;51.528;5.076;2022-11-15T07:04:43;100197.84;;;6.87;85.47
60974;BME280;46846;51.528;5.076;2022-11-15T07:07:09;100192.38;;;6.93;86.60
60974;BME280;46846;51.528;5.076;2022-11-15T07:09:34;100195.16;;;6.88;86.19
60974;BME280;46846;51.528;5.076;2022-11-15T07:12:00;100200.34;;;6.91;86.46
60974;BME280;46846;51.528;5.076;2022-11-15T07:14:25;100202.19;;;6.89;85.87
60974;BME280;46846;51.528;5.076;2022-11-15T07:16:50;100204.91;;;6.86;83.89
60974;BME280;46846;51.528;5.076;2022-11-15T07:19:16;100200.44;;;6.88;84.65
60974;BME280;46846;51.528;5.076;2022-11-15T07:21:41;100200.34;;;6.91;86.19
60974;BME280;46846;51.528;5.076;2022-11-15T07:24:06;100196.91;;;6.89;85.42
60974;BME280;46846;51.528;5.076;2022-11-15T07:26:32;100200.34;;;6.91;84.83
60974;BME280;46846;51.528;5.076;2022-11-15T07:28:57;100197.56;;;6.96;86.43
60974;BME280;46846;51.528;5.076;2022-11-15T07:31:22;100202.09;;;6.92;86.67
60974;BME280;46846;51.528;5.076;2022-11-15T07:33:48;100199.41;;;6.94;85.56
60974;BME280;46846;51.528;5.076;2022-11-15T07:36:13;100206.38;;;6.96;86.19
60974;BME280;46846;51.528;5.076;2022-11-15T07:38:38;100199.66;;;6.84;84.17
60974;BME280;46846;51.528;5.076;2022-11-15T07:41:05;100203.28;;;6.82;83.90
60974;BME280;46846;51.528;5.076;2022-11-15T07:43:31;100212.84;;;6.86;84.55
60974;BME280;46846;51.528;5.076;2022-11-15T07:45:59;100213.72;;;6.87;84.21
60974;BME280;46846;51.528;5.076;2022-11-15T07:48:24;100214.84;;;6.78;81.72
60974;BME280;46846;51.528;5.076;2022-11-15T07:50:49;100221.91;;;6.77;82.32
60974;BME280;46846;51.528;5.076;2022-11-15T07:53:15;100217.50;;;6.78;82.46
60974;BME280;46846;51.528;5.076;2022-11-15T07:55:41;100217.72;;;6.70;81.59
60974;BME280;46846;51.528;5.076;2022-11-15T07:58:07;100210.81;;;6.64;81.89
60974;BME280;46846;51.528;5.076;2022-11-15T08:00:33;100206.44;;;6.63;80.06
60974;BME280;46846;51.528;5.076;2022-11-15T08:03:13;100207.81;;;6.77;82.71
60974;BME280;46846;51.528;5.076;2022-11-15T08:05:40;100195.66;;;6.71;80.00
60974;BME280;46846;51.528;5.076;2022-11-15T08:08:07;100195.03;;;6.63;79.26
60974;BME280;46846;51.528;5.076;2022-11-15T08:10:34;100189.53;;;6.69;80.08
60974;BME280;46846;51.528;5.076;2022-11-15T08:13:08;100194.16;;;6.61;79.31
60974;BME280;46846;51.528;5.076;2022-11-15T08:15:34;100186.09;;;6.65;80.00
60974;BME280;46846;51.528;5.076;2022-11-15T08:18:03;100184.94;;;6.76;80.50
60974;BME280;46846;51.528;5.076;2022-11-15T08:20:29;100186.88;;;6.69;80.00
60974;BME280;46846;51.528;5.076;2022-11-15T08:22:56;100191.16;;;6.75;79.70
60974;BME280;46846;51.528;5.076;2022-11-15T08:25:22;100196.31;;;6.79;80.29
60974;BME280;46846;51.528;5.076;2022-11-15T08:27:51;100194.44;;;6.83;81.91
60974;BME280;46846;51.528;5.076;2022-11-15T08:30:17;100193.56;;;6.82;81.58
60974;BME280;46846;51.528;5.076;2022-11-15T08:32:42;100191.03;;;6.78;78.77
60974;BME280;46846;51.528;5.076;2022-11-15T08:35:08;100185.09;;;6.71;79.34
60974;BME280;46846;51.528;5.076;2022-11-15T08:37:33;100183.84;;;6.83;81.17
60974;BME280;46846;51.528;5.076;2022-11-15T08:39:59;100180.50;;;6.76;79.43
60974;BME280;46846;51.528;5.076;2022-11-15T08:42:24;100173.44;;;6.77;79.81
60974;BME280;46846;51.528;5.076;2022-11-15T08:44:49;100176.31;;;6.69;79.19
60974;BME280;46846;51.528;5.076;2022-11-15T08:47:15;100170.72;;;6.80;80.05
60974;BME280;46846;51.528;5.076;2022-11-15T08:49:40;100166.28;;;6.80;79.37
60974;BME280;46846;51.528;5.076;2022-11-15T08:52:05;100162.88;;;6.77;78.79
60974;BME280;46846;51.528;5.076;2022-11-15T08:54:31;100155.78;;;6.77;79.68
60974;BME280;46846;51.528;5.076;2022-11-15T08:56:56;100156.66;;;6.78;80.40
60974;BME280;46846;51.528;5.076;2022-11-15T08:59:22;100154.94;;;6.77;79.63
60974;BME280;46846;51.528;5.076;2022-11-15T09:01:47;100150.47;;;6.79;79.39
60974;BME280;46846;51.528;5.076;2022-11-15T09:04:12;100143.31;;;6.82;79.96
60974;BME280;46846;51.528;5.076;2022-11-15T09:06:38;100144.25;;;6.80;79.23
60974;BME280;46846;51.528;5.076;2022-11-15T09:09:03;100139.06;;;6.77;80.30
60974;BME280;46846;51.528;5.076;2022-11-15T09:11:29;100148.53;;;6.86;81.52
60974;BME280;46846;51.528;5.076;2022-11-15T09:13:54;100139.72;;;6.85;81.15
60974;BME280;46846;51.528;5.076;2022-11-15T09:16:20;100141.53;;;6.83;80.46
60974;BME280;46846;51.528;5.076;2022-11-15T09:18:45;100140.81;;;6.78;80.67
60974;BME280;46846;51.528;5.076;2022-11-15T09:21:11;100134.59;;;6.79;80.92
60974;BME280;46846;51.528;5.076;2022-11-15T09:23:36;100136.50;;;6.74;80.61
60974;BME280;46846;51.528;5.076;2022-11-15T09:26:03;100131.22;;;6.74;80.31
60974;BME280;46846;51.528;5.076;2022-11-15T09:28:30;100130.19;;;6.79;80.39
60974;BME280;46846;51.528;5.076;2022-11-15T09:31:00;100132.97;;;6.75;80.69
60974;BME280;46846;51.528;5.076;2022-11-15T09:33:26;100126.78;;;6.76;80.50
60974;BME280;46846;51.528;5.076;2022-11-15T09:35:52;100124.31;;;6.69;81.08
60974;BME280;46846;51.528;5.076;2022-11-15T09:38:17;100119.75;;;6.75;80.83
60974;BME280;46846;51.528;5.076;2022-11-15T09:40:43;100124.13;;;6.76;80.51
60974;BME280;46846;51.528;5.076;2022-11-15T09:51:03;100138.91;;;6.83;81.16
60974;BME280;46846;51.528;5.076;2022-11-15T09:53:36;100134.63;;;6.77;80.99
60974;BME280;46846;51.528;5.076;2022-11-15T09:56:10;100123.22;;;6.77;80.78
60974;BME280;46846;51.528;5.076;2022-11-15T10:03:56;100140.00;;;6.76;80.93
60974;BME280;46846;51.528;5.076;2022-11-15T10:06:25;100131.09;;;6.78;80.30
60974;BME280;46846;51.528;5.076;2022-11-15T10:11:31;100133.00;;;6.73;80.73
60974;BME280;46846;51.528;5.076;2022-11-15T10:14:25;100116.97;;;6.79;80.78
60974;BME280;46846;51.528;5.076;2022-11-15T10:24:46;100101.88;;;6.83;80.40
60974;BME280;46846;51.528;5.076;2022-11-15T10:27:17;100092.88;;;6.89;81.09
60974;BME280;46846;51.528;5.076;2022-11-15T10:29:49;100100.78;;;6.90;79.93
60974;BME280;46846;51.528;5.076;2022-11-15T10:32:16;100090.22;;;6.89;80.56
60974;BME280;46846;51.528;5.076;2022-11-15T10:34:42;100086.63;;;6.91;80.36
60974;BME280;46846;51.528;5.076;2022-11-15T10:37:08;100085.72;;;6.92;80.68
60974;BME280;46846;51.528;5.076;2022-11-15T10:39:33;100089.16;;;6.94;80.24
60974;BME280;46846;51.528;5.076;2022-11-15T10:42:18;100081.50;;;6.87;80.22
60974;BME280;46846;51.528;5.076;2022-11-15T10:44:50;100075.28;;;6.88;79.97
60974;BME280;46846;51.528;5.076;2022-11-15T10:47:24;100064.41;;;6.97;79.93
60974;BME280;46846;51.528;5.076;2022-11-15T10:50:03;100064.56;;;6.92;79.51
60974;BME280;46846;51.528;5.076;2022-11-15T10:52:30;100064.44;;;6.95;79.64
60974;BME280;46846;51.528;5.076;2022-11-15T10:55:02;100058.19;;;6.98;80.41
60974;BME280;46846;51.528;5.076;2022-11-15T10:57:35;100054.84;;;6.93;80.03
60974;BME280;46846;51.528;5.076;2022-11-15T11:02:57;100031.75;;;6.98;79.90
60974;BME280;46846;51.528;5.076;2022-11-15T11:05:30;100030.78;;;7.01;79.92
60974;BME280;46846;51.528;5.076;2022-11-15T11:08:18;100028.94;;;7.03;79.93
60974;BME280;46846;51.528;5.076;2022-11-15T11:10:56;100021.72;;;7.08;80.11
60974;BME280;46846;51.528;5.076;2022-11-15T11:13:27;100014.41;;;7.16;79.79
60974;BME280;46846;51.528;5.076;2022-11-15T11:18:29;100005.66;;;7.14;79.26
60974;BME280;46846;51.528;5.076;2022-11-15T11:21:02;100002.84;;;7.19;79.48
60974;BME280;46846;51.528;5.076;2022-11-15T11:23:52;100003.63;;;7.22;79.44
60974;BME280;46846;51.528;5.076;2022-11-15T11:26:26;99988.38;;;7.29;79.40
60974;BME280;46846;51.528;5.076;2022-11-15T11:29:12;99988.63;;;7.23;79.00
60974;BME280;46846;51.528;5.076;2022-11-15T11:32:32;99985.34;;;7.15;78.74
60974;BME280;46846;51.528;5.076;2022-11-15T11:35:06;99982.69;;;7.15;78.74
60974;BME280;46846;51.528;5.076;2022-11-15T11:43:27;99956.31;;;7.13;79.18
60974;BME280;46846;51.528;5.076;2022-11-15T11:46:30;99952.63;;;7.17;78.71
60974;BME280;46846;51.528;5.076;2022-11-15T11:49:09;99945.19;;;7.29;78.55
60974;BME280;46846;51.528;5.076;2022-11-15T12:02:43;99923.06;;;7.31;78.35
60974;BME280;46846;51.528;5.076;2022-11-15T12:05:16;99927.25;;;7.37;78.45
60974;BME280;46846;51.528;5.076;2022-11-15T12:07:44;99919.44;;;7.34;78.02
60974;BME280;46846;51.528;5.076;2022-11-15T12:12:44;99912.41;;;7.33;78.84
60974;BME280;46846;51.528;5.076;2022-11-15T12:15:16;99908.38;;;7.46;78.55
60974;BME280;46846;51.528;5.076;2022-11-15T12:17:44;99902.25;;;7.46;78.88
60974;BME280;46846;51.528;5.076;2022-11-15T12:20:21;99908.44;;;7.45;78.19
60974;BME280;46846;51.528;5.076;2022-11-15T12:23:16;99901.66;;;7.37;78.04
60974;BME280;46846;51.528;5.076;2022-11-15T12:26:11;99892.69;;;7.42;78.29
60974;BME280;46846;51.528;5.076;2022-11-15T12:28:54;99898.72;;;7.45;78.40
60974;BME280;46846;51.528;5.076;2022-11-15T12:31:36;99894.19;;;7.49;78.15
60974;BME280;46846;51.528;5.076;2022-11-15T12:36:48;99884.50;;;7.48;78.17
60974;BME280;46846;51.528;5.076;2022-11-15T12:39:15;99885.66;;;7.41;78.24
60974;BME280;46846;51.528;5.076;2022-11-15T12:47:25;99862.28;;;7.52;78.03
60974;BME280;46846;51.528;5.076;2022-11-15T12:49:50;99855.19;;;7.54;78.18
60974;BME280;46846;51.528;5.076;2022-11-15T12:52:17;99853.38;;;7.55;77.87
60974;BME280;46846;51.528;5.076;2022-11-15T13:02:25;99833.91;;;7.56;77.77
60974;BME280;46846;51.528;5.076;2022-11-15T13:04:54;99829.38;;;7.59;77.91
60974;BME280;46846;51.528;5.076;2022-11-15T13:13:00;99818.50;;;7.67;77.64
60974;BME280;46846;51.528;5.076;2022-11-15T13:15:46;99805.38;;;7.64;77.59
60974;BME280;46846;51.528;5.076;2022-11-15T13:18:34;99800.94;;;7.64;77.78
60974;BME280;46846;51.528;5.076;2022-11-15T13:21:00;99802.59;;;7.67;77.50
60974;BME280;46846;51.528;5.076;2022-11-15T13:23:26;99790.28;;;7.66;77.48
60974;BME280;46846;51.528;5.076;2022-11-15T13:28:23;99783.78;;;7.75;77.74
60974;BME280;46846;51.528;5.076;2022-11-15T13:30:58;99786.25;;;7.79;77.84
60974;BME280;46846;51.528;5.076;2022-11-15T13:33:31;99786.34;;;7.76;77.36
60974;BME280;46846;51.528;5.076;2022-11-15T13:35:59;99776.31;;;7.85;77.53
60974;BME280;46846;51.528;5.076;2022-11-15T13:38:35;99770.03;;;7.87;77.01
60974;BME280;46846;51.528;5.076;2022-11-15T13:41:22;99759.47;;;7.86;77.21
60974;BME280;46846;51.528;5.076;2022-11-15T13:43:50;99760.97;;;7.93;77.34
60974;BME280;46846;51.528;5.076;2022-11-15T13:46:21;99753.00;;;7.93;77.47
60974;BME280;46846;51.528;5.076;2022-11-15T13:49:04;99752.22;;;7.91;77.20
60974;BME280;46846;51.528;5.076;2022-11-15T13:51:38;99748.53;;;7.95;77.14
60974;BME280;46846;51.528;5.076;2022-11-15T13:56:34;99741.19;;;8.02;77.25
60974;BME280;46846;51.528;5.076;2022-11-15T13:59:08;99738.78;;;7.96;77.40
60974;BME280;46846;51.528;5.076;2022-11-15T14:01:34;99729.31;;;7.90;77.09
60974;BME280;46846;51.528;5.076;2022-11-15T14:04:00;99727.22;;;7.98;77.50
60974;BME280;46846;51.528;5.076;2022-11-15T14:06:28;99724.31;;;8.04;77.33
60974;BME280;46846;51.528;5.076;2022-11-15T14:11:32;99710.28;;;8.02;77.51
60974;BME280;46846;51.528;5.076;2022-11-15T14:14:16;99700.53;;;8.03;77.23
60974;BME280;46846;51.528;5.076;2022-11-15T14:16:43;99700.47;;;8.04;77.03
60974;BME280;46846;51.528;5.076;2022-11-15T14:24:30;99685.03;;;8.14;77.15
60974;BME280;46846;51.528;5.076;2022-11-15T14:29:43;99677.56;;;8.03;77.15
60974;BME280;46846;51.528;5.076;2022-11-15T14:32:17;99685.09;;;8.13;77.32
60974;BME280;46846;51.528;5.076;2022-11-15T14:34:43;99670.84;;;8.15;77.45
60974;BME280;46846;51.528;5.076;2022-11-15T14:37:19;99671.00;;;8.12;76.93
60974;BME280;46846;51.528;5.076;2022-11-15T14:39:45;99666.41;;;8.16;76.86
60974;BME280;46846;51.528;5.076;2022-11-15T14:42:11;99661.50;;;8.06;77.37
60974;BME280;46846;51.528;5.076;2022-11-15T14:44:36;99659.69;;;8.09;77.71
60974;BME280;46846;51.528;5.076;2022-11-15T14:47:01;99652.38;;;8.14;77.14
60974;BME280;46846;51.528;5.076;2022-11-15T14:49:27;99642.13;;;8.06;77.14
60974;BME280;46846;51.528;5.076;2022-11-15T14:51:52;99638.66;;;8.04;77.60
60974;BME280;46846;51.528;5.076;2022-11-15T14:54:17;99637.41;;;8.13;77.64
60974;BME280;46846;51.528;5.076;2022-11-15T14:56:43;99637.66;;;8.06;77.15
60974;BME280;46846;51.528;5.076;2022-11-15T14:59:08;99635.53;;;8.15;77.50
60974;BME280;46846;51.528;5.076;2022-11-15T15:01:33;99618.72;;;8.16;77.14
60974;BME280;46846;51.528;5.076;2022-11-15T15:03:59;99624.72;;;8.19;76.93
60974;BME280;46846;51.528;5.076;2022-11-15T15:06:25;99619.38;;;8.21;76.96
60974;BME280;46846;51.528;5.076;2022-11-15T15:08:50;99624.63;;;8.23;76.97
60974;BME280;46846;51.528;5.076;2022-11-15T15:11:25;99620.03;;;8.26;77.07
60974;BME280;46846;51.528;5.076;2022-11-15T15:13:52;99611.44;;;8.21;77.25